Aeroporto :
LOGIN :

Iscrizione | Disclaimer

   EN    FR    IT 

 










Sommario :    VFR   VFR Marginale   IFR   IFR Intensivo   IFR Molto Intensivo
Visibilità : 
Base nubi : 
>= 8 km
>= 3000ft
5 / 8 km
1000 / 3000 ft
1500m / 5 km
500 / 1000 ft
800 / 1500m
200 / 500 ft
< 800m
< 200 ft
Simboli :   Temporali  Nebbia  Neve Forte  Precipitazioni Forti  Vento > 20 kt
SIGMETs :   Varie  Temporali  Ghiacco  Turbolenza  Onda orograficha  Ceneri Vulcaniche






- Altitudine del aeroporto : 1989 ft
- Codice IATA : KLV


LKKV - Karlovy Vary

ULTIMO METAR :
  • 251530Z 23009G20KT 180V270 9999 SCT017 BKN021 BKN036 06/04 Q0998

METARs OBSOLETI :
  • 251500Z 23009KT 190V270 9999 -RA BKN013 OVC026 06/04 Q0998
  • 251430Z 24009G20KT 170V280 9999 BKN013 OVC023 06/04 Q0998
  • 251400Z 24011KT 210V280 9999 BKN015 OVC027 07/03 Q0999
  • 251330Z 25012KT 180V290 9999 -RA SCT015 BKN017 OVC023 07/04 Q0999
  • 251323Z 25012KT 180V290 9999 -RA BKN017 OVC023 07/04 Q0999 RMK REG QNH 0995
  • 251300Z 25010G20KT 210V280 9999 BKN015 OVC021 07/04 Q0999

TAF TAF LKKV
Valido dal 25 a 12 ore il 26 a 18 ore UTC


251100Z 2512/2618 24010KT 9999 BKN020
TEMPO 2512/2618 26012G26KT
TEMPO 2512/2606 6000 RA BKN010
TEMPO 2606/2618 2000 SHSN SCT003TCU BKN005



MetMap, La meteo Aeronautica in un colpo d'occhio ! - Copyright ORBIFLY Dicembre 2007 - Disclaimer

ORBIFLY MET'MAP TEAM :

Programmazione e sviluppo : Alexandra Zaïnal
Concezione : Baudouin d'Aumeries
Aiuto per la programmazione : Marc-Olivier Méhu
Supporto tecnico e logistico : Manuel Goepfert
Aiuto per la traduzione : Arnaldo La Scala

Contatto : metmap@orbifly.com




FONTI E CREDITI :

   NOAA